Time;durP1;ratioP1;P1;durP2;ratioP2;P2;SDS_P1;SDS_P2;PMS_P1;PMS_P2;Temp;Humidity;BMP_temperature;BMP_pressure;BME280_temperature;BME280_humidity;BME280_pressure;Samples;Min_cycle;Max_cycle;Signal;HPM_P1;HPM_P2
2022/09/03 00:02:09;;;;;;;7.80;5.23;;;25.30;55.40;;;;;;4990093;28;20210;-96
2022/09/03 00:04:44;;;;;;;8.97;5.80;;;25.30;55.20;;;;;;5011780;28;20206;-96
2022/09/03 00:07:17;;;;;;;14.20;7.43;;;25.30;55.30;;;;;;5016044;28;20205;-96
2022/09/03 00:10:02;;;;;;;7.40;4.83;;;25.20;55.30;;;;;;5015048;28;20229;-96
2022/09/03 00:12:38;;;;;;;9.93;5.83;;;25.20;55.30;;;;;;5003246;28;20202;-96
2022/09/03 00:15:16;;;;;;;8.20;6.27;;;25.20;55.30;;;;;;4999357;28;20205;-96
2022/09/03 00:17:52;;;;;;;9.60;5.97;;;25.10;55.80;;;;;;4984540;28;20222;-96
2022/09/03 00:20:27;;;;;;;8.30;5.63;;;25.10;55.90;;;;;;5023240;23;20229;-96
2022/09/03 00:23:06;;;;;;;9.17;5.53;;;25.10;55.30;;;;;;5015681;28;20295;-96
2022/09/03 00:25:42;;;;;;;7.90;5.50;;;25.00;55.50;;;;;;5049055;23;20258;-96
2022/09/03 00:28:34;;;;;;;8.17;5.47;;;25.00;55.20;;;;;;5039384;28;20204;-96
2022/09/03 00:31:26;;;;;;;11.20;6.97;;;25.00;55.90;;;;;;5032405;28;20232;-96
2022/09/03 00:34:02;;;;;;;9.13;5.90;;;25.00;56.60;;;;;;5052487;28;20209;-96
2022/09/03 00:36:40;;;;;;;6.93;5.77;;;24.90;55.80;;;;;;5051965;28;20276;-96
2022/09/03 00:39:13;;;;;;;11.10;6.63;;;24.90;56.00;;;;;;5056516;28;20212;-96
2022/09/03 00:42:06;;;;;;;6.00;4.77;;;24.90;56.20;;;;;;5052925;28;20205;-96
2022/09/03 00:45:03;;;;;;;7.60;5.30;;;24.80;56.50;;;;;;5056143;28;20308;-96
2022/09/03 00:47:38;;;;;;;8.13;5.50;;;24.90;56.20;;;;;;5041630;28;20240;-96
2022/09/03 00:53:05;;;;;;;4.53;4.07;;;24.80;56.30;;;;;;5031917;28;20208;-96
2022/09/03 00:55:57;;;;;;;10.50;6.20;;;24.80;56.30;;;;;;5045038;28;20219;-96
2022/09/03 00:59:04;;;;;;;8.17;5.00;;;24.70;56.60;;;;;;5046812;28;20185;-96
2022/09/03 01:08:07;;;;;;;10.90;6.40;;;24.60;56.70;;;;;;5010670;28;20235;-96
2022/09/03 01:10:53;;;;;;;10.23;6.20;;;24.50;56.80;;;;;;5027170;28;20200;-96
2022/09/03 01:13:28;;;;;;;8.63;6.17;;;24.40;56.70;;;;;;5036884;28;20253;-96
2022/09/03 01:16:24;;;;;;;13.40;7.77;;;24.40;57.00;;;;;;5035062;28;20212;-96
2022/09/03 01:19:05;;;;;;;13.37;7.03;;;24.30;57.90;;;;;;5019296;28;20719;-96
2022/09/03 01:22:04;;;;;;;10.77;6.20;;;24.20;57.30;;;;;;5019236;28;20668;-96
2022/09/03 01:25:06;;;;;;;8.23;6.23;;;24.20;57.60;;;;;;5018809;28;20307;-96
2022/09/03 01:27:46;;;;;;;10.53;6.87;;;24.10;57.60;;;;;;5019277;28;20224;-96
2022/09/03 01:33:39;;;;;;;10.17;7.07;;;24.10;57.40;;;;;;5070064;27;1907773;-96
2022/09/03 01:36:13;;;;;;;9.90;6.63;;;24.10;57.70;;;;;;5133232;28;20192;-95
2022/09/03 01:38:46;;;;;;;13.67;7.83;;;24.10;57.90;;;;;;5152775;27;20175;-95
2022/09/03 01:44:39;;;;;;;9.53;6.73;;;24.00;58.20;;;;;;5149990;27;20264;-96
2022/09/03 01:47:23;;;;;;;8.27;5.70;;;24.00;58.00;;;;;;5125400;28;20224;-96
2022/09/03 01:50:05;;;;;;;8.50;6.47;;;24.00;58.50;;;;;;5115872;28;20197;-96
2022/09/03 01:52:44;;;;;;;7.83;5.93;;;24.00;59.20;;;;;;5113989;28;20308;-96
2022/09/03 01:55:28;;;;;;;9.80;6.93;;;24.00;58.70;;;;;;5114908;28;20277;-96
2022/09/03 01:58:07;;;;;;;6.63;5.90;;;24.00;58.90;;;;;;5121686;28;20565;-95
2022/09/03 02:00:37;;;;;;;8.47;6.70;;;24.00;58.60;;;;;;5112727;28;20206;-96
2022/09/03 02:03:12;;;;;;;7.83;5.63;;;24.00;58.40;;;;;;5113802;28;20216;-96
2022/09/03 02:05:43;;;;;;;7.53;6.20;;;24.00;58.50;;;;;;5112765;28;20212;-94
2022/09/03 02:08:16;;;;;;;8.73;6.50;;;24.00;58.40;;;;;;5112960;28;20293;-96
2022/09/03 02:10:48;;;;;;;8.30;5.93;;;24.00;58.70;;;;;;5112378;28;20208;-96
2022/09/03 02:13:28;;;;;;;10.40;7.50;;;24.00;58.40;;;;;;5115946;28;20278;-96
2022/09/03 02:16:00;;;;;;;12.67;7.40;;;23.90;58.20;;;;;;5115385;28;20206;-96
2022/09/03 02:18:59;;;;;;;11.33;7.20;;;23.90;58.30;;;;;;5113572;28;20233;-96
2022/09/03 02:21:35;;;;;;;11.70;7.70;;;23.80;58.70;;;;;;5122056;28;20726;-95
2022/09/03 02:24:05;;;;;;;8.60;6.53;;;23.80;58.70;;;;;;5138112;28;20197;-96
2022/09/03 02:26:38;;;;;;;9.63;7.50;;;23.80;58.70;;;;;;5134946;28;20200;-96
2022/09/03 02:31:46;;;;;;;7.73;6.93;;;23.70;58.70;;;;;;5122274;28;20229;-95
2022/09/03 02:34:32;;;;;;;8.67;7.70;;;23.60;58.60;;;;;;5143289;28;20198;-95
2022/09/03 02:37:43;;;;;;;18.10;10.97;;;23.60;59.70;;;;;;5117838;28;20687;-96
2022/09/03 02:40:14;;;;;;;11.63;8.70;;;23.60;59.70;;;;;;5123041;28;20210;-95
2022/09/03 02:45:30;;;;;;;11.17;8.43;;;23.50;58.80;;;;;;5106764;28;20215;-96
2022/09/03 02:48:00;;;;;;;11.97;8.70;;;23.40;59.20;;;;;;5118204;28;20175;-96
2022/09/03 02:50:30;;;;;;;9.10;8.17;;;23.50;59.10;;;;;;5122178;28;20761;-96
2022/09/03 02:53:15;;;;;;;8.87;8.07;;;23.40;59.30;;;;;;5137830;28;20210;-96
2022/09/03 02:55:50;;;;;;;10.83;9.17;;;23.40;59.60;;;;;;5121234;28;20218;-96
2022/09/03 02:58:20;;;;;;;10.77;9.60;;;23.40;59.10;;;;;;5117618;28;20277;-97
2022/09/03 03:00:49;;;;;;;11.83;9.03;;;23.40;58.80;;;;;;5103324;28;20661;-96
2022/09/03 03:03:22;;;;;;;11.10;9.60;;;23.40;58.80;;;;;;5101670;28;20234;-96
2022/09/03 03:05:54;;;;;;;9.37;8.47;;;23.40;59.10;;;;;;5102616;28;20207;-96
2022/09/03 03:08:35;;;;;;;12.37;9.73;;;23.40;59.00;;;;;;5112624;28;20212;-96
2022/09/03 03:11:10;;;;;;;12.60;10.23;;;23.40;59.40;;;;;;5117846;28;20205;-96
2022/09/03 03:13:38;;;;;;;11.50;10.30;;;23.40;59.30;;;;;;5098814;28;20241;-96
2022/09/03 03:16:06;;;;;;;12.40;10.33;;;23.40;59.00;;;;;;5111241;28;20202;-96
2022/09/03 03:18:36;;;;;;;11.03;9.27;;;23.40;59.10;;;;;;5116606;28;20206;-96
2022/09/03 03:21:07;;;;;;;14.60;10.60;;;23.30;59.20;;;;;;5102639;28;20203;-96
2022/09/03 03:23:52;;;;;;;13.00;10.60;;;23.30;59.30;;;;;;5102080;28;20209;-96
2022/09/03 03:26:23;;;;;;;15.20;11.17;;;23.30;59.70;;;;;;5094366;28;20226;-96
2022/09/03 03:29:03;;;;;;;16.70;11.33;;;23.20;59.30;;;;;;5099234;28;20203;-96
2022/09/03 03:31:32;;;;;;;15.30;11.17;;;23.20;59.50;;;;;;5114795;28;20838;-96
2022/09/03 03:37:01;;;;;;;17.97;12.80;;;23.20;60.20;;;;;;5048281;22;20246;-96
2022/09/03 03:39:33;;;;;;;14.73;10.90;;;23.20;59.50;;;;;;5036550;28;20209;-96
2022/09/03 03:45:05;;;;;;;13.40;11.10;;;23.10;59.70;;;;;;5026554;28;20221;-96
2022/09/03 03:47:40;;;;;;;11.87;10.10;;;23.10;59.60;;;;;;5038124;28;20197;-96
2022/09/03 03:50:08;;;;;;;15.23;11.80;;;23.10;60.00;;;;;;5038590;28;20192;-96
2022/09/03 03:52:36;;;;;;;10.97;9.87;;;23.10;59.90;;;;;;5037184;28;20299;-95
2022/09/03 03:58:01;;;;;;;12.57;10.73;;;23.00;60.10;;;;;;5012087;28;20220;-96
2022/09/03 04:00:29;;;;;;;15.53;11.40;;;23.00;60.40;;;;;;4988937;28;20201;-94
2022/09/03 04:02:56;;;;;;;14.33;11.23;;;23.00;60.30;;;;;;5012132;28;20216;-96
2022/09/03 04:08:07;;;;;;;12.43;11.00;;;23.00;60.20;;;;;;4982961;28;20257;-96
2022/09/03 04:10:40;;;;;;;13.43;11.27;;;23.00;60.10;;;;;;5010707;28;20205;-96
2022/09/03 04:13:12;;;;;;;15.73;11.40;;;23.10;60.60;;;;;;5017394;28;20272;-96
2022/09/03 04:18:34;;;;;;;14.47;11.20;;;23.10;60.40;;;;;;5004730;28;20234;-96
2022/09/03 04:21:09;;;;;;;14.00;11.07;;;23.10;61.30;;;;;;5022447;28;20256;-96
2022/09/03 04:23:42;;;;;;;15.20;12.00;;;23.10;61.40;;;;;;5025394;28;20201;-96
2022/09/03 04:26:33;;;;;;;13.00;11.60;;;23.10;60.80;;;;;;5025327;28;20261;-96
2022/09/03 04:29:08;;;;;;;14.83;11.40;;;23.10;61.40;;;;;;5024599;28;20603;-96
2022/09/03 04:32:51;;;;;;;12.53;10.50;;;23.10;61.40;;;;;;5025361;28;20217;-96
2022/09/03 04:34:50;;;;;;;15.87;11.57;;;23.10;61.60;;;;;;5014865;28;20313;-96
2022/09/03 04:37:24;;;;;;;14.20;10.53;;;23.10;61.20;;;;;;5023566;28;20631;-96
2022/09/03 04:40:02;;;;;;;10.93;9.83;;;23.10;61.10;;;;;;5024176;28;20203;-96
2022/09/03 04:42:43;;;;;;;15.67;11.87;;;23.10;61.40;;;;;;5022702;28;20197;-96
2022/09/03 04:45:19;;;;;;;13.27;10.63;;;23.10;62.00;;;;;;5018301;28;20201;-96
2022/09/03 04:50:44;;;;;;;13.97;11.07;;;23.10;61.90;;;;;;5020687;28;20224;-96
2022/09/03 04:53:13;;;;;;;11.67;10.33;;;23.10;61.40;;;;;;5023865;28;20225;-96
2022/09/03 04:55:41;;;;;;;12.10;10.90;;;23.10;61.50;;;;;;5020919;28;20234;-96
2022/09/03 04:58:11;;;;;;;17.10;12.23;;;23.10;61.20;;;;;;5022911;28;20198;-96
2022/09/03 05:00:38;;;;;;;16.13;11.50;;;23.10;61.40;;;;;;5022116;28;20246;-95
2022/09/03 05:03:05;;;;;;;16.00;11.67;;;23.10;61.40;;;;;;5013538;28;20212;-96
2022/09/03 05:05:38;;;;;;;13.37;10.73;;;23.10;61.40;;;;;;5006318;28;20205;-96
2022/09/03 05:08:14;;;;;;;11.43;10.30;;;23.10;61.40;;;;;;5015859;28;20217;-96
2022/09/03 05:10:43;;;;;;;18.60;13.00;;;23.10;61.50;;;;;;5025986;28;20211;-96
2022/09/03 05:13:39;;;;;;;19.40;12.87;;;23.10;61.20;;;;;;5046939;28;20205;-96
2022/09/03 05:16:12;;;;;;;14.00;11.43;;;23.10;61.60;;;;;;5019714;28;20238;-96
2022/09/03 05:18:41;;;;;;;13.67;12.03;;;23.10;61.60;;;;;;5003763;28;20223;-96
2022/09/03 05:21:34;;;;;;;16.83;12.93;;;23.10;61.40;;;;;;5016567;28;20265;-95
2022/09/03 05:26:47;;;;;;;11.87;10.67;;;23.10;61.40;;;;;;5015321;28;20205;-96
2022/09/03 05:29:18;;;;;;;16.63;12.70;;;23.10;61.40;;;;;;5018835;28;20208;-96
2022/09/03 05:31:46;;;;;;;13.17;11.47;;;23.10;61.40;;;;;;5031893;28;20203;-96
2022/09/03 05:34:25;;;;;;;15.03;12.50;;;23.10;61.70;;;;;;5032664;28;20233;-96
2022/09/03 05:39:33;;;;;;;12.80;11.37;;;23.10;61.90;;;;;;5016238;28;20206;-96
2022/09/03 05:42:10;;;;;;;20.70;14.00;;;23.10;62.10;;;;;;5002753;28;20202;-96
2022/09/03 05:44:43;;;;;;;12.63;11.30;;;23.10;62.90;;;;;;5020309;28;20197;-96
2022/09/03 05:47:11;;;;;;;13.10;11.53;;;23.10;62.90;;;;;;5016254;28;20255;-96
2022/09/03 05:49:39;;;;;;;17.83;13.10;;;23.00;62.50;;;;;;5029095;28;20190;-96
2022/09/03 05:52:08;;;;;;;16.93;12.80;;;23.10;62.80;;;;;;5029875;28;20201;-96
2022/09/03 05:54:36;;;;;;;14.37;11.77;;;23.10;62.90;;;;;;5011250;28;20229;-96
2022/09/03 05:57:03;;;;;;;17.57;13.23;;;23.10;63.00;;;;;;5025407;28;20218;-96
2022/09/03 06:02:37;;;;;;;11.87;10.67;;;23.00;63.20;;;;;;5021358;28;20207;-96
2022/09/03 06:05:06;;;;;;;15.97;12.50;;;23.10;63.70;;;;;;5015199;28;20208;-96
2022/09/03 06:07:43;;;;;;;20.30;12.60;;;23.10;63.00;;;;;;5018360;28;20235;-96
2022/09/03 06:10:14;;;;;;;18.73;13.70;;;23.10;63.20;;;;;;5020112;28;20205;-96
2022/09/03 06:12:48;;;;;;;16.13;12.27;;;23.10;63.30;;;;;;5020000;28;20653;-96
2022/09/03 06:15:16;;;;;;;15.37;12.83;;;23.10;63.30;;;;;;5019444;28;20278;-96
2022/09/03 06:18:26;;;;;;;14.10;12.43;;;23.10;63.30;;;;;;5082078;22;20240;-96
2022/09/03 06:21:43;;;;;;;12.97;11.67;;;23.10;64.00;;;;;;5046573;28;20206;-96
2022/09/03 06:24:26;;;;;;;16.20;11.70;;;23.10;63.80;;;;;;5064304;28;20301;-96
2022/09/03 06:32:28;;;;;;;18.47;13.80;;;23.20;64.30;;;;;;5123524;22;20244;-96
2022/09/03 06:34:55;;;;;;;12.53;11.23;;;23.20;63.50;;;;;;5029765;23;20315;-96
2022/09/03 06:37:25;;;;;;;18.23;12.37;;;23.30;63.70;;;;;;5038627;28;20263;-96
2022/09/03 06:39:55;;;;;;;13.00;11.60;;;23.30;63.70;;;;;;5039079;28;20209;-96
2022/09/03 06:42:28;;;;;;;16.30;12.57;;;23.30;63.60;;;;;;5039911;28;20207;-96
2022/09/03 06:47:31;;;;;;;15.10;12.03;;;23.40;63.60;;;;;;1795120;22;20322;-92
2022/09/03 06:50:01;;;;;;;15.67;13.50;;;23.40;63.60;;;;;;5031384;28;20990;-91
2022/09/03 06:52:57;;;;;;;18.37;12.97;;;23.40;63.60;;;;;;5034149;28;20209;-91
2022/09/03 06:55:38;;;;;;;15.53;12.50;;;23.40;64.20;;;;;;5024016;28;20289;-91
2022/09/03 06:58:12;;;;;;;19.87;13.47;;;23.50;64.00;;;;;;5023660;28;20212;-91
2022/09/03 07:00:39;;;;;;;13.80;11.90;;;23.60;63.70;;;;;;5025356;28;20286;-91
2022/09/03 07:03:07;;;;;;;14.33;11.93;;;23.60;63.50;;;;;;5022665;28;20217;-91
2022/09/03 07:05:34;;;;;;;13.57;10.90;;;23.60;63.50;;;;;;5012850;28;20213;-91
2022/09/03 07:08:03;;;;;;;14.80;11.50;;;23.60;63.30;;;;;;5014366;28;20202;-90
2022/09/03 07:13:46;;;;;;;20.67;12.67;;;23.70;63.40;;;;;;5081508;23;20764;-92
2022/09/03 07:16:16;;;;;;;18.73;11.97;;;23.80;63.40;;;;;;5090435;28;20852;-92
2022/09/03 07:18:45;;;;;;;16.60;12.33;;;23.80;63.30;;;;;;5075387;28;20229;-92
2022/09/03 07:21:24;;;;;;;18.20;12.23;;;23.80;63.60;;;;;;5069780;28;20655;-91
2022/09/03 07:23:58;;;;;;;18.57;13.57;;;23.80;63.70;;;;;;5069581;28;20221;-90
2022/09/03 07:26:42;;;;;;;17.87;11.93;;;23.80;63.90;;;;;;5068570;28;20306;-92
2022/09/03 07:29:14;;;;;;;16.50;13.03;;;23.90;64.00;;;;;;5079811;28;20301;-91
2022/09/03 07:31:43;;;;;;;16.70;12.97;;;23.90;63.80;;;;;;5084854;28;20216;-92
2022/09/03 07:34:15;;;;;;;18.43;13.20;;;24.00;63.90;;;;;;5089523;28;20230;-92
2022/09/03 07:36:45;;;;;;;22.23;14.73;;;24.10;64.10;;;;;;5084925;22;20231;-92
2022/09/03 07:39:14;;;;;;;24.27;15.83;;;24.10;64.00;;;;;;5048661;28;20217;-92
2022/09/03 07:41:42;;;;;;;19.13;12.90;;;24.10;63.90;;;;;;5048498;28;20199;-91
2022/09/03 07:44:10;;;;;;;16.37;12.43;;;24.20;64.00;;;;;;5051441;28;20274;-91
2022/09/03 07:46:42;;;;;;;16.47;12.87;;;24.20;64.90;;;;;;5049438;28;20731;-91
2022/09/03 07:49:09;;;;;;;16.50;12.60;;;24.30;64.00;;;;;;5051215;28;20200;-91
2022/09/03 07:51:40;;;;;;;17.30;12.43;;;24.30;63.90;;;;;;5050214;28;20211;-91
2022/09/03 07:54:24;;;;;;;15.07;11.97;;;24.40;64.30;;;;;;5045155;28;20492;-91
2022/09/03 07:56:52;;;;;;;13.57;11.27;;;24.40;63.60;;;;;;5044193;28;20211;-91
2022/09/03 07:59:30;;;;;;;22.70;14.33;;;24.50;63.50;;;;;;5047644;28;20215;-91
2022/09/03 08:01:57;;;;;;;20.73;13.10;;;24.50;63.50;;;;;;5049725;28;20199;-91
2022/09/03 08:04:24;;;;;;;17.37;13.07;;;24.60;63.20;;;;;;5036518;28;20660;-93
2022/09/03 08:09:31;;;;;;;15.63;11.70;;;24.60;63.00;;;;;;5151510;22;20720;-91
2022/09/03 08:11:59;;;;;;;13.63;10.60;;;24.60;62.90;;;;;;4993216;28;20295;-92
2022/09/03 08:14:30;;;;;;;14.07;11.00;;;24.80;63.10;;;;;;5001841;28;20229;-90
2022/09/03 08:17:02;;;;;;;10.03;9.03;;;24.80;63.20;;;;;;5024608;28;20273;-94
2022/09/03 08:19:42;;;;;;;12.37;10.70;;;24.80;63.30;;;;;;5018689;28;20206;-95
2022/09/03 08:22:09;;;;;;;14.43;11.00;;;24.90;63.50;;;;;;5019774;28;20205;-96
2022/09/03 08:24:37;;;;;;;13.83;12.10;;;24.90;63.20;;;;;;5025347;28;20193;-93
2022/09/03 08:29:48;;;;;;;14.27;11.33;;;25.00;62.60;;;;;;4994470;28;20217;-92
2022/09/03 08:32:48;;;;;;;13.63;10.87;;;25.10;62.50;;;;;;5014913;28;20210;-92
2022/09/03 08:35:16;;;;;;;14.27;11.13;;;25.10;62.50;;;;;;5014522;28;20236;-93
2022/09/03 08:37:43;;;;;;;13.20;10.60;;;25.20;62.50;;;;;;5014427;28;20264;-93
2022/09/03 08:40:16;;;;;;;14.37;11.37;;;25.30;62.50;;;;;;4996802;28;20201;-93
2022/09/03 08:43:45;;;;;;;13.40;11.63;;;25.40;62.60;;;;;;5002891;28;20217;-94
2022/09/03 08:46:41;;;;;;;11.90;10.60;;;25.40;62.10;;;;;;4981568;28;20213;-93
2022/09/03 08:49:14;;;;;;;14.20;11.03;;;25.50;62.00;;;;;;5012235;28;20235;-93
2022/09/03 08:51:44;;;;;;;14.43;11.13;;;25.60;62.00;;;;;;5005123;28;20651;-94
2022/09/03 08:54:13;;;;;;;16.90;12.37;;;25.70;62.00;;;;;;5011166;28;20585;-93
2022/09/03 08:59:53;;;;;;;14.17;10.87;;;25.80;61.70;;;;;;4989006;28;20269;-94
2022/09/03 09:02:57;;;;;;;13.63;11.93;;;26.00;62.10;;;;;;4995336;28;20209;-93
2022/09/03 09:06:11;;;;;;;11.90;10.00;;;26.00;61.60;;;;;;4989677;28;20201;-94
2022/09/03 09:08:52;;;;;;;11.37;10.17;;;26.10;61.80;;;;;;4996499;28;20218;-95
2022/09/03 09:14:38;;;;;;;10.57;9.30;;;26.40;61.00;;;;;;4991056;28;20317;-91
2022/09/03 09:17:31;;;;;;;12.40;9.20;;;26.40;60.80;;;;;;4995435;28;20288;-94
2022/09/03 09:20:19;;;;;;;8.53;6.63;;;26.50;60.80;;;;;;4995315;28;20663;-93
2022/09/03 09:23:15;;;;;;;10.07;7.17;;;26.60;60.30;;;;;;4981810;28;20213;-93
2022/09/03 09:25:48;;;;;;;8.33;6.40;;;26.70;60.20;;;;;;4987222;28;20208;-91
2022/09/03 09:47:07;;;;;;;8.13;6.10;;;27.00;59.40;;;;;;4935683;29;20711;-92
2022/09/03 09:49:38;;;;;;;11.07;6.97;;;27.00;58.90;;;;;;4922943;29;20219;-95
2022/09/03 09:52:12;;;;;;;6.80;5.70;;;27.10;59.30;;;;;;4937873;29;20640;-94
2022/09/03 09:54:41;;;;;;;15.80;8.73;;;27.10;59.20;;;;;;4938692;29;20239;-93
2022/09/03 09:57:16;;;;;;;7.70;6.23;;;27.10;59.10;;;;;;4940866;29;20204;-93
2022/09/03 09:59:45;;;;;;;8.43;6.20;;;27.10;59.00;;;;;;4948649;28;20187;-93
2022/09/03 10:02:21;;;;;;;10.03;7.13;;;27.20;59.00;;;;;;4951461;28;20277;-95
2022/09/03 10:04:48;;;;;;;8.53;6.37;;;27.20;58.80;;;;;;4956155;28;20271;-92
2022/09/03 10:07:25;;;;;;;8.00;6.50;;;27.30;58.90;;;;;;4950028;29;20220;-94
2022/09/03 10:10:03;;;;;;;8.27;6.13;;;27.30;58.60;;;;;;4951399;29;20232;-94
2022/09/03 10:12:35;;;;;;;9.13;6.50;;;27.40;58.50;;;;;;4932305;29;20576;-94
2022/09/03 10:15:15;;;;;;;9.60;7.33;;;27.40;58.80;;;;;;4943085;29;20648;-94
2022/09/03 10:17:56;;;;;;;10.50;6.97;;;27.50;58.90;;;;;;4943727;29;20565;-93
2022/09/03 10:21:14;;;;;;;9.70;6.40;;;27.50;58.90;;;;;;4948574;29;20198;-96
2022/09/03 10:23:52;;;;;;;11.07;7.57;;;27.60;58.30;;;;;;4932341;29;20645;-92
2022/09/03 10:26:47;;;;;;;11.23;8.07;;;27.70;58.40;;;;;;4949023;29;20255;-95
2022/09/03 10:29:19;;;;;;;9.33;7.17;;;27.80;58.10;;;;;;4937805;29;20219;-94
2022/09/03 10:45:32;;;;;;;7.40;5.73;;;28.20;57.90;;;;;;4938830;29;20630;-96
2022/09/03 10:48:37;;;;;;;10.33;6.87;;;28.30;57.60;;;;;;4943215;29;20247;-96
2022/09/03 11:13:16;;;;;;;6.90;5.77;;;28.60;56.70;;;;;;5108186;22;20240;-96
2022/09/03 11:18:56;;;;;;;9.73;7.97;;;28.70;56.70;;;;;;5043294;22;20971;-95
2022/09/03 11:21:32;;;;;;;19.87;13.07;;;28.80;56.40;;;;;;5061878;22;20226;-96
2022/09/03 11:24:08;;;;;;;11.87;8.17;;;28.90;56.60;;;;;;5069128;28;20213;-96
2022/09/03 11:26:38;;;;;;;6.97;5.87;;;29.00;56.20;;;;;;5077682;28;20233;-96
2022/09/03 11:35:43;;;;;;;12.00;8.20;;;29.20;55.50;;;;;;4982756;28;20236;-95
2022/09/03 11:38:23;;;;;;;9.27;6.73;;;29.30;56.20;;;;;;5031239;28;20205;-95
2022/09/03 11:41:11;;;;;;;7.67;6.93;;;29.40;55.70;;;;;;5028069;28;20200;-94
2022/09/03 11:43:39;;;;;;;11.37;7.50;;;29.40;55.60;;;;;;5029896;28;20243;-95
2022/09/03 11:49:32;;;;;;;9.27;7.93;;;29.60;55.90;;;;;;4954082;29;20220;-96
2022/09/03 11:52:03;;;;;;;16.07;9.90;;;29.80;55.30;;;;;;4947636;28;20214;-94
2022/09/03 11:54:33;;;;;;;13.73;9.13;;;29.90;55.50;;;;;;4932511;29;20278;-92
2022/09/03 11:57:12;;;;;;;7.37;6.63;;;30.10;55.40;;;;;;4926153;29;20201;-95
2022/09/03 11:59:44;;;;;;;12.87;9.27;;;30.20;55.10;;;;;;4925368;29;20299;-95
2022/09/03 12:02:23;;;;;;;11.65;7.95;;;30.30;54.50;;;;;;5001469;28;20202;-94
2022/09/03 12:05:26;;;;;;;16.90;10.13;;;30.50;54.10;;;;;;5006616;28;20232;-95
2022/09/03 12:08:55;;;;;;;11.65;9.05;;;30.70;53.70;;;;;;5009555;28;20198;-93
2022/09/03 12:14:57;;;;;;;10.35;7.78;;;30.90;53.00;;;;;;4931267;29;20618;-95
2022/09/03 12:20:17;;;;;;;11.68;9.57;;;31.20;53.20;;;;;;5020049;22;20241;-93
2022/09/03 12:22:49;;;;;;;10.93;8.80;;;31.30;52.70;;;;;;5012092;28;20617;-96
2022/09/03 12:25:16;;;;;;;12.10;8.82;;;31.30;52.30;;;;;;5014336;28;20279;-95
2022/09/03 12:27:48;;;;;;;10.30;8.95;;;31.40;52.20;;;;;;5010283;28;20229;-92
2022/09/03 12:30:17;;;;;;;11.35;9.20;;;31.30;51.50;;;;;;5012187;28;20980;-92
2022/09/03 12:32:46;;;;;;;10.82;9.00;;;31.30;51.70;;;;;;4990669;28;20628;-94
2022/09/03 12:35:14;;;;;;;10.13;8.57;;;31.40;51.70;;;;;;5000994;28;20232;-93
2022/09/03 12:37:43;;;;;;;10.43;9.20;;;31.30;51.50;;;;;;5002458;28;20260;-93
2022/09/03 12:40:20;;;;;;;14.07;10.20;;;31.40;51.80;;;;;;4995356;28;20202;-94
2022/09/03 12:43:13;;;;;;;9.75;8.05;;;31.40;51.30;;;;;;5010629;28;20193;-94
2022/09/03 12:45:49;;;;;;;11.75;8.60;;;31.40;51.40;;;;;;5010714;28;20587;-93
2022/09/03 12:48:18;;;;;;;12.45;8.13;;;31.40;51.20;;;;;;5010068;28;20216;-93
2022/09/03 12:50:49;;;;;;;8.43;7.10;;;31.40;51.30;;;;;;5009105;28;20255;-93
2022/09/03 12:53:24;;;;;;;10.77;8.02;;;31.40;51.10;;;;;;5009737;28;20228;-92
2022/09/03 12:56:12;;;;;;;14.38;9.55;;;31.30;50.90;;;;;;4992273;28;20229;-92
2022/09/03 12:58:50;;;;;;;9.07;7.53;;;31.30;50.80;;;;;;5000275;28;20211;-92
2022/09/03 13:01:21;;;;;;;10.38;9.00;;;31.20;50.80;;;;;;5009583;28;20232;-93
2022/09/03 13:03:59;;;;;;;13.43;9.47;;;31.20;50.90;;;;;;5009230;28;20229;-93
2022/09/03 13:09:37;;;;;;;7.93;6.77;;;31.10;51.10;;;;;;5009554;28;20681;-93
2022/09/03 13:12:06;;;;;;;10.07;6.13;;;31.00;51.00;;;;;;5009525;28;20229;-92
2022/09/03 13:14:44;;;;;;;10.07;7.40;;;31.00;51.10;;;;;;5008879;28;20611;-93
2022/09/03 13:17:49;;;;;;;12.17;7.43;;;30.90;50.90;;;;;;5007310;28;20206;-92
2022/09/03 13:20:45;;;;;;;7.80;5.87;;;30.90;51.20;;;;;;4997536;28;20224;-93
2022/09/03 13:23:31;;;;;;;8.75;5.63;;;31.00;51.10;;;;;;5003538;28;20576;-94
2022/09/03 13:26:30;;;;;;;8.40;5.63;;;31.00;51.70;;;;;;4993267;28;20198;-93
2022/09/03 13:29:19;;;;;;;6.00;5.07;;;31.10;51.40;;;;;;4989925;28;20631;-92
2022/09/03 13:31:54;;;;;;;7.05;5.03;;;31.10;50.90;;;;;;4989921;28;20218;-92
2022/09/03 13:34:26;;;;;;;8.65;5.43;;;31.30;51.20;;;;;;4989315;28;20674;-92
2022/09/03 13:37:02;;;;;;;8.05;5.32;;;31.50;50.90;;;;;;5004012;28;20686;-90
2022/09/03 13:39:38;;;;;;;6.85;4.75;;;31.60;50.20;;;;;;5014985;28;20195;-91
2022/09/03 13:45:05;;;;;;;5.90;4.43;;;31.90;50.40;;;;;;5009946;28;20248;-92
2022/09/03 13:50:20;;;;;;;8.55;5.35;;;32.00;49.60;;;;;;5006736;28;20653;-92
2022/09/03 13:50:30;;;;;;;6.85;4.60;;;32.20;49.60;;;;;;5009056;28;20515;-92
2022/09/03 13:53:05;;;;;;;7.82;4.55;;;32.30;49.50;;;;;;5009541;28;20331;-92
2022/09/03 13:55:46;;;;;;;7.80;4.90;;;32.30;49.00;;;;;;5007973;28;20235;-93
2022/09/03 13:58:26;;;;;;;6.60;4.88;;;32.40;49.00;;;;;;5017388;28;20216;-93
2022/09/03 14:01:10;;;;;;;8.98;4.88;;;32.40;48.70;;;;;;5015934;28;20202;-94
2022/09/03 14:03:45;;;;;;;6.57;4.07;;;32.50;48.10;;;;;;4999529;28;20213;-92
2022/09/03 14:06:24;;;;;;;6.03;4.10;;;32.50;48.20;;;;;;5008400;28;20232;-92
2022/09/03 14:09:06;;;;;;;4.80;3.95;;;32.60;48.00;;;;;;5009406;28;20849;-95
2022/09/03 14:14:41;;;;;;;6.65;3.78;;;32.60;47.90;;;;;;4995140;28;20213;-93
2022/09/03 14:17:16;;;;;;;6.20;4.15;;;32.60;48.10;;;;;;5026744;28;20201;-93
2022/09/03 14:19:52;;;;;;;6.22;4.35;;;32.60;47.30;;;;;;5030732;28;20228;-93
2022/09/03 14:22:48;;;;;;;9.13;4.85;;;32.60;47.40;;;;;;5017943;28;20712;-94
2022/09/03 14:25:24;;;;;;;5.55;3.90;;;32.50;47.20;;;;;;5019549;28;20547;-92
2022/09/03 14:28:27;;;;;;;4.43;3.35;;;32.40;46.90;;;;;;5012994;28;20212;-93
2022/09/03 14:31:03;;;;;;;7.25;4.55;;;32.30;47.10;;;;;;5010607;28;20224;-93
2022/09/03 14:37:00;;;;;;;7.22;4.53;;;32.10;46.80;;;;;;4996474;28;20241;-93
2022/09/03 14:40:12;;;;;;;5.82;3.75;;;32.00;47.20;;;;;;5009617;28;20205;-93
2022/09/03 14:43:00;;;;;;;5.75;3.83;;;31.80;47.20;;;;;;5012211;28;20207;-92
2022/09/03 14:45:52;;;;;;;11.07;5.47;;;31.70;47.10;;;;;;5012106;28;20584;-92
2022/09/03 14:48:42;;;;;;;9.88;5.10;;;31.60;47.20;;;;;;5007965;28;20205;-93
2022/09/03 14:51:30;;;;;;;6.43;3.93;;;31.50;47.40;;;;;;4994012;28;20344;-94
2022/09/03 14:54:23;;;;;;;7.10;4.40;;;31.30;47.70;;;;;;5011366;28;20275;-93
2022/09/03 14:56:55;;;;;;;9.47;4.23;;;31.30;47.70;;;;;;5010627;28;20264;-95
2022/09/03 14:59:38;;;;;;;6.50;4.33;;;31.20;48.20;;;;;;5009036;28;20210;-92
2022/09/03 15:02:43;;;;;;;8.27;4.77;;;31.20;48.30;;;;;;5010993;28;20205;-93
2022/09/03 15:05:21;;;;;;;5.63;4.20;;;31.10;48.10;;;;;;5006656;28;20205;-93
2022/09/03 15:07:53;;;;;;;6.53;4.20;;;31.10;48.10;;;;;;5012738;28;20626;-88
2022/09/03 15:10:38;;;;;;;6.40;4.13;;;31.10;48.30;;;;;;5012842;28;20210;-92
2022/09/03 15:13:11;;;;;;;7.93;4.47;;;31.00;47.90;;;;;;5017590;28;20201;-92
2022/09/03 15:19:03;;;;;;;8.57;4.67;;;30.90;48.00;;;;;;5009140;28;20212;-93
2022/09/03 15:21:48;;;;;;;7.77;4.27;;;30.80;48.10;;;;;;5014387;28;20209;-93
2022/09/03 15:24:21;;;;;;;5.17;3.57;;;30.80;48.20;;;;;;5013730;28;20227;-95
2022/09/03 15:27:10;;;;;;;7.37;4.27;;;30.70;48.30;;;;;;5009691;28;20658;-93
2022/09/03 15:30:01;;;;;;;11.23;5.37;;;30.60;48.40;;;;;;5030930;22;20232;-93
2022/09/03 15:32:51;;;;;;;6.23;4.20;;;30.50;48.50;;;;;;5014437;28;20260;-93
2022/09/03 15:35:36;;;;;;;6.73;4.07;;;30.40;48.60;;;;;;5019025;28;20893;-92
2022/09/03 15:38:11;;;;;;;10.23;5.23;;;30.40;48.80;;;;;;5030525;28;20266;-93
2022/09/03 15:43:32;;;;;;;6.53;3.93;;;30.20;48.80;;;;;;4988664;28;20221;-93
2022/09/03 15:46:09;;;;;;;12.70;5.23;;;30.20;49.00;;;;;;5019980;28;20271;-94
2022/09/03 15:52:16;;;;;;;9.47;4.60;;;30.10;49.30;;;;;;4894761;29;20215;-93
2022/09/03 15:54:56;;;;;;;9.77;4.70;;;30.10;49.30;;;;;;4954666;28;20222;-93
2022/09/03 15:57:42;;;;;;;7.73;4.83;;;30.00;49.60;;;;;;4960392;28;20219;-92
2022/09/03 16:00:13;;;;;;;7.13;4.67;;;30.00;49.60;;;;;;4992775;28;20206;-92
2022/09/03 16:02:49;;;;;;;4.03;3.20;;;29.90;49.80;;;;;;5013573;28;20213;-94
2022/09/03 16:05:39;;;;;;;10.17;5.80;;;29.90;49.80;;;;;;5022732;28;20220;-90
2022/09/03 16:08:12;;;;;;;8.90;4.80;;;29.90;50.00;;;;;;5010243;28;20562;-92
2022/09/03 16:10:53;;;;;;;5.80;3.87;;;29.90;50.20;;;;;;5012657;28;20224;-90
2022/09/03 16:13:34;;;;;;;6.73;4.83;;;29.90;50.40;;;;;;5012077;28;20262;-93
2022/09/03 16:19:15;;;;;;;9.33;4.93;;;29.90;50.20;;;;;;4994084;28;20224;-90
2022/09/03 16:22:09;;;;;;;;;;;;;;;;;;;;;